sensor_id;sensor_type;location;lat;lon;timestamp;P1;P2;P0
47081;PMS5003;33066;49.296;14.470;2023-04-25T00:00:05;4;4;
47081;PMS5003;33066;49.296;14.470;2023-04-25T00:02:30;7;6;
47081;PMS5003;33066;49.296;14.470;2023-04-25T00:04:55;4;3;
47081;PMS5003;33066;49.296;14.470;2023-04-25T00:07:21;8;8;
47081;PMS5003;33066;49.296;14.470;2023-04-25T00:09:46;6;6;
47081;PMS5003;33066;49.296;14.470;2023-04-25T00:12:12;8;6;
47081;PMS5003;33066;49.296;14.470;2023-04-25T00:14:37;13;10;
47081;PMS5003;33066;49.296;14.470;2023-04-25T00:17:02;12;10;
47081;PMS5003;33066;49.296;14.470;2023-04-25T00:19:27;13;10;
47081;PMS5003;33066;49.296;14.470;2023-04-25T00:21:53;9;9;
47081;PMS5003;33066;49.296;14.470;2023-04-25T00:24:18;9;9;
47081;PMS5003;33066;49.296;14.470;2023-04-25T00:26:44;8;7;
47081;PMS5003;33066;49.296;14.470;2023-04-25T00:29:08;9;5;
47081;PMS5003;33066;49.296;14.470;2023-04-25T00:31:34;5;4;
47081;PMS5003;33066;49.296;14.470;2023-04-25T00:34:00;4;4;
47081;PMS5003;33066;49.296;14.470;2023-04-25T00:36:24;5;5;
47081;PMS5003;33066;49.296;14.470;2023-04-25T00:38:49;6;5;
47081;PMS5003;33066;49.296;14.470;2023-04-25T00:41:15;4;4;
47081;PMS5003;33066;49.296;14.470;2023-04-25T00:43:41;4;4;
47081;PMS5003;33066;49.296;14.470;2023-04-25T00:46:06;5;5;
47081;PMS5003;33066;49.296;14.470;2023-04-25T00:48:31;5;5;
47081;PMS5003;33066;49.296;14.470;2023-04-25T00:50:58;3;3;
47081;PMS5003;33066;49.296;14.470;2023-04-25T00:53:23;5;5;
47081;PMS5003;33066;49.296;14.470;2023-04-25T00:55:48;6;6;
47081;PMS5003;33066;49.296;14.470;2023-04-25T00:58:13;6;3;
47081;PMS5003;33066;49.296;14.470;2023-04-25T01:00:38;4;4;
47081;PMS5003;33066;49.296;14.470;2023-04-25T01:03:04;6;6;
47081;PMS5003;33066;49.296;14.470;2023-04-25T01:05:29;4;4;
47081;PMS5003;33066;49.296;14.470;2023-04-25T01:07:54;7;6;
47081;PMS5003;33066;49.296;14.470;2023-04-25T01:10:19;6;4;
47081;PMS5003;33066;49.296;14.470;2023-04-25T01:12:46;12;7;
47081;PMS5003;33066;49.296;14.470;2023-04-25T01:15:10;11;11;
47081;PMS5003;33066;49.296;14.470;2023-04-25T01:17:37;15;10;
47081;PMS5003;33066;49.296;14.470;2023-04-25T01:20:01;13;13;
47081;PMS5003;33066;49.296;14.470;2023-04-25T01:22:26;15;13;
47081;PMS5003;33066;49.296;14.470;2023-04-25T01:24:51;10;10;
47081;PMS5003;33066;49.296;14.470;2023-04-25T01:27:17;10;10;
47081;PMS5003;33066;49.296;14.470;2023-04-25T01:29:42;8;8;
47081;PMS5003;33066;49.296;14.470;2023-04-25T01:32:07;13;12;
47081;PMS5003;33066;49.296;14.470;2023-04-25T01:34:32;13;12;
47081;PMS5003;33066;49.296;14.470;2023-04-25T01:36:58;17;17;
47081;PMS5003;33066;49.296;14.470;2023-04-25T01:39:23;25;25;
47081;PMS5003;33066;49.296;14.470;2023-04-25T01:41:48;40;39;
47081;PMS5003;33066;49.296;14.470;2023-04-25T01:44:14;49;49;
47081;PMS5003;33066;49.296;14.470;2023-04-25T01:46:41;45;44;
47081;PMS5003;33066;49.296;14.470;2023-04-25T01:49:05;59;57;
47081;PMS5003;33066;49.296;14.470;2023-04-25T01:51:32;47;45;
47081;PMS5003;33066;49.296;14.470;2023-04-25T01:53:56;78;73;
47081;PMS5003;33066;49.296;14.470;2023-04-25T01:56:21;39;39;
47081;PMS5003;33066;49.296;14.470;2023-04-25T01:58:47;8;8;
47081;PMS5003;33066;49.296;14.470;2023-04-25T02:01:12;8;8;
47081;PMS5003;33066;49.296;14.470;2023-04-25T02:03:39;35;32;
47081;PMS5003;33066;49.296;14.470;2023-04-25T02:06:03;21;21;
47081;PMS5003;33066;49.296;14.470;2023-04-25T02:08:28;20;18;
47081;PMS5003;33066;49.296;14.470;2023-04-25T02:10:54;36;35;
47081;PMS5003;33066;49.296;14.470;2023-04-25T02:13:19;27;25;
47081;PMS5003;33066;49.296;14.470;2023-04-25T02:15:44;63;61;
47081;PMS5003;33066;49.296;14.470;2023-04-25T02:18:09;18;17;
47081;PMS5003;33066;49.296;14.470;2023-04-25T02:20:34;24;24;
47081;PMS5003;33066;49.296;14.470;2023-04-25T02:23:00;30;30;
47081;PMS5003;33066;49.296;14.470;2023-04-25T02:25:26;43;43;
47081;PMS5003;33066;49.296;14.470;2023-04-25T02:27:51;40;40;
47081;PMS5003;33066;49.296;14.470;2023-04-25T02:30:16;48;46;
47081;PMS5003;33066;49.296;14.470;2023-04-25T02:32:41;55;55;
47081;PMS5003;33066;49.296;14.470;2023-04-25T02:35:07;25;25;
47081;PMS5003;33066;49.296;14.470;2023-04-25T02:37:32;44;44;
47081;PMS5003;33066;49.296;14.470;2023-04-25T02:39:57;22;22;
47081;PMS5003;33066;49.296;14.470;2023-04-25T02:42:23;42;40;
47081;PMS5003;33066;49.296;14.470;2023-04-25T02:44:48;35;34;
47081;PMS5003;33066;49.296;14.470;2023-04-25T02:47:13;60;57;
47081;PMS5003;33066;49.296;14.470;2023-04-25T02:49:39;15;15;
47081;PMS5003;33066;49.296;14.470;2023-04-25T02:52:04;57;56;
47081;PMS5003;33066;49.296;14.470;2023-04-25T02:54:31;39;36;
47081;PMS5003;33066;49.296;14.470;2023-04-25T02:56:55;29;29;
47081;PMS5003;33066;49.296;14.470;2023-04-25T02:59:20;18;18;
47081;PMS5003;33066;49.296;14.470;2023-04-25T03:01:46;35;33;
47081;PMS5003;33066;49.296;14.470;2023-04-25T03:04:11;55;53;
47081;PMS5003;33066;49.296;14.470;2023-04-25T03:06:37;21;20;
47081;PMS5003;33066;49.296;14.470;2023-04-25T03:09:03;35;35;
47081;PMS5003;33066;49.296;14.470;2023-04-25T03:12:59;33;30;
47081;PMS5003;33066;49.296;14.470;2023-04-25T03:15:25;32;30;
47081;PMS5003;33066;49.296;14.470;2023-04-25T03:17:50;15;14;
47081;PMS5003;33066;49.296;14.470;2023-04-25T03:20:16;32;32;
47081;PMS5003;33066;49.296;14.470;2023-04-25T03:22:42;16;16;
47081;PMS5003;33066;49.296;14.470;2023-04-25T03:25:07;24;24;
47081;PMS5003;33066;49.296;14.470;2023-04-25T03:27:32;39;39;
47081;PMS5003;33066;49.296;14.470;2023-04-25T03:30:00;29;27;
47081;PMS5003;33066;49.296;14.470;2023-04-25T03:32:23;34;33;
47081;PMS5003;33066;49.296;14.470;2023-04-25T03:34:49;18;18;
47081;PMS5003;33066;49.296;14.470;2023-04-25T03:37:14;44;42;
47081;PMS5003;33066;49.296;14.470;2023-04-25T03:39:40;41;39;
47081;PMS5003;33066;49.296;14.470;2023-04-25T03:42:07;19;17;
47081;PMS5003;33066;49.296;14.470;2023-04-25T03:44:31;23;23;
47081;PMS5003;33066;49.296;14.470;2023-04-25T03:46:56;26;23;
47081;PMS5003;33066;49.296;14.470;2023-04-25T03:49:22;25;24;
47081;PMS5003;33066;49.296;14.470;2023-04-25T03:51:47;32;32;
47081;PMS5003;33066;49.296;14.470;2023-04-25T03:54:13;25;22;
47081;PMS5003;33066;49.296;14.470;2023-04-25T03:56:39;29;28;
47081;PMS5003;33066;49.296;14.470;2023-04-25T03:59:04;16;16;
47081;PMS5003;33066;49.296;14.470;2023-04-25T04:01:30;30;30;
47081;PMS5003;33066;49.296;14.470;2023-04-25T04:03:56;27;27;
47081;PMS5003;33066;49.296;14.470;2023-04-25T04:06:21;23;23;
47081;PMS5003;33066;49.296;14.470;2023-04-25T04:08:47;29;26;
47081;PMS5003;33066;49.296;14.470;2023-04-25T04:11:11;41;41;
47081;PMS5003;33066;49.296;14.470;2023-04-25T04:13:36;33;33;
47081;PMS5003;33066;49.296;14.470;2023-04-25T04:16:02;37;37;
47081;PMS5003;33066;49.296;14.470;2023-04-25T04:18:27;43;43;
47081;PMS5003;33066;49.296;14.470;2023-04-25T04:20:52;38;37;
47081;PMS5003;33066;49.296;14.470;2023-04-25T04:23:18;44;43;
47081;PMS5003;33066;49.296;14.470;2023-04-25T04:25:43;41;39;
47081;PMS5003;33066;49.296;14.470;2023-04-25T04:28:08;47;46;
47081;PMS5003;33066;49.296;14.470;2023-04-25T04:30:33;39;38;
47081;PMS5003;33066;49.296;14.470;2023-04-25T04:32:59;23;22;
47081;PMS5003;33066;49.296;14.470;2023-04-25T04:35:25;17;17;
47081;PMS5003;33066;49.296;14.470;2023-04-25T04:37:50;13;13;
47081;PMS5003;33066;49.296;14.470;2023-04-25T04:40:15;41;38;
47081;PMS5003;33066;49.296;14.470;2023-04-25T04:42:41;32;32;
47081;PMS5003;33066;49.296;14.470;2023-04-25T04:45:07;21;21;
47081;PMS5003;33066;49.296;14.470;2023-04-25T04:47:32;81;75;
47081;PMS5003;33066;49.296;14.470;2023-04-25T04:49:58;19;17;
47081;PMS5003;33066;49.296;14.470;2023-04-25T04:52:23;40;34;
47081;PMS5003;33066;49.296;14.470;2023-04-25T04:54:48;19;17;
47081;PMS5003;33066;49.296;14.470;2023-04-25T04:57:14;43;42;
47081;PMS5003;33066;49.296;14.470;2023-04-25T04:59:39;21;17;
47081;PMS5003;33066;49.296;14.470;2023-04-25T05:02:06;92;91;
47081;PMS5003;33066;49.296;14.470;2023-04-25T05:04:30;16;16;
47081;PMS5003;33066;49.296;14.470;2023-04-25T05:06:56;47;47;
47081;PMS5003;33066;49.296;14.470;2023-04-25T05:09:21;37;36;
47081;PMS5003;33066;49.296;14.470;2023-04-25T05:11:47;29;29;
47081;PMS5003;33066;49.296;14.470;2023-04-25T05:14:12;33;33;
47081;PMS5003;33066;49.296;14.470;2023-04-25T05:16:39;30;30;
47081;PMS5003;33066;49.296;14.470;2023-04-25T05:19:03;97;95;
47081;PMS5003;33066;49.296;14.470;2023-04-25T05:21:28;97;95;
47081;PMS5003;33066;49.296;14.470;2023-04-25T05:23:54;28;26;
47081;PMS5003;33066;49.296;14.470;2023-04-25T05:26:19;89;89;
47081;PMS5003;33066;49.296;14.470;2023-04-25T05:28:45;42;38;
47081;PMS5003;33066;49.296;14.470;2023-04-25T05:31:10;87;83;
47081;PMS5003;33066;49.296;14.470;2023-04-25T05:33:35;52;50;
47081;PMS5003;33066;49.296;14.470;2023-04-25T05:36:00;16;16;
47081;PMS5003;33066;49.296;14.470;2023-04-25T05:38:26;26;26;
47081;PMS5003;33066;49.296;14.470;2023-04-25T05:40:51;71;71;
47081;PMS5003;33066;49.296;14.470;2023-04-25T05:43:17;56;55;
47081;PMS5003;33066;49.296;14.470;2023-04-25T05:45:42;47;47;
47081;PMS5003;33066;49.296;14.470;2023-04-25T05:48:08;63;63;
47081;PMS5003;33066;49.296;14.470;2023-04-25T05:50:33;42;42;
47081;PMS5003;33066;49.296;14.470;2023-04-25T05:52:59;16;16;
47081;PMS5003;33066;49.296;14.470;2023-04-25T05:55:24;37;29;
47081;PMS5003;33066;49.296;14.470;2023-04-25T05:57:50;215;182;
47081;PMS5003;33066;49.296;14.470;2023-04-25T06:00:15;51;38;
47081;PMS5003;33066;49.296;14.470;2023-04-25T06:02:40;65;45;
47081;PMS5003;33066;49.296;14.470;2023-04-25T06:05:06;77;52;
47081;PMS5003;33066;49.296;14.470;2023-04-25T06:07:32;49;33;
47081;PMS5003;33066;49.296;14.470;2023-04-25T06:09:57;67;52;
47081;PMS5003;33066;49.296;14.470;2023-04-25T06:12:23;19;16;
47081;PMS5003;33066;49.296;14.470;2023-04-25T06:14:49;21;18;
47081;PMS5003;33066;49.296;14.470;2023-04-25T06:17:14;11;9;
47081;PMS5003;33066;49.296;14.470;2023-04-25T06:19:39;7;7;
47081;PMS5003;33066;49.296;14.470;2023-04-25T06:22:04;11;7;
47081;PMS5003;33066;49.296;14.470;2023-04-25T06:24:29;10;8;
47081;PMS5003;33066;49.296;14.470;2023-04-25T06:26:55;9;8;
47081;PMS5003;33066;49.296;14.470;2023-04-25T06:29:20;13;9;
47081;PMS5003;33066;49.296;14.470;2023-04-25T06:31:46;9;8;
47081;PMS5003;33066;49.296;14.470;2023-04-25T06:34:11;17;16;
47081;PMS5003;33066;49.296;14.470;2023-04-25T06:36:36;9;9;
47081;PMS5003;33066;49.296;14.470;2023-04-25T06:39:01;9;9;
47081;PMS5003;33066;49.296;14.470;2023-04-25T06:41:27;8;8;
47081;PMS5003;33066;49.296;14.470;2023-04-25T06:43:53;17;16;
47081;PMS5003;33066;49.296;14.470;2023-04-25T06:46:18;8;8;
47081;PMS5003;33066;49.296;14.470;2023-04-25T06:48:44;11;11;
47081;PMS5003;33066;49.296;14.470;2023-04-25T06:51:09;6;6;
47081;PMS5003;33066;49.296;14.470;2023-04-25T06:53:35;10;9;
47081;PMS5003;33066;49.296;14.470;2023-04-25T06:56:00;6;5;
47081;PMS5003;33066;49.296;14.470;2023-04-25T06:58:27;9;8;
47081;PMS5003;33066;49.296;14.470;2023-04-25T07:00:51;9;8;
47081;PMS5003;33066;49.296;14.470;2023-04-25T07:03:16;5;5;
47081;PMS5003;33066;49.296;14.470;2023-04-25T07:05:41;11;10;
47081;PMS5003;33066;49.296;14.470;2023-04-25T07:08:07;16;7;
47081;PMS5003;33066;49.296;14.470;2023-04-25T07:10:33;12;11;
47081;PMS5003;33066;49.296;14.470;2023-04-25T07:12:58;8;8;
47081;PMS5003;33066;49.296;14.470;2023-04-25T07:15:23;5;5;
47081;PMS5003;33066;49.296;14.470;2023-04-25T07:17:48;11;6;
47081;PMS5003;33066;49.296;14.470;2023-04-25T07:20:14;7;7;
47081;PMS5003;33066;49.296;14.470;2023-04-25T07:22:39;7;7;
47081;PMS5003;33066;49.296;14.470;2023-04-25T07:25:05;9;9;
47081;PMS5003;33066;49.296;14.470;2023-04-25T07:27:31;8;6;
47081;PMS5003;33066;49.296;14.470;2023-04-25T07:29:56;5;5;
47081;PMS5003;33066;49.296;14.470;2023-04-25T07:32:21;7;6;
47081;PMS5003;33066;49.296;14.470;2023-04-25T07:34:48;6;6;
47081;PMS5003;33066;49.296;14.470;2023-04-25T07:37:12;7;6;
47081;PMS5003;33066;49.296;14.470;2023-04-25T07:39:37;8;7;
47081;PMS5003;33066;49.296;14.470;2023-04-25T07:42:03;7;5;
47081;PMS5003;33066;49.296;14.470;2023-04-25T07:44:28;7;6;
47081;PMS5003;33066;49.296;14.470;2023-04-25T07:46:53;7;7;
47081;PMS5003;33066;49.296;14.470;2023-04-25T07:49:18;6;6;
47081;PMS5003;33066;49.296;14.470;2023-04-25T07:51:44;5;5;
47081;PMS5003;33066;49.296;14.470;2023-04-25T07:54:09;8;7;
47081;PMS5003;33066;49.296;14.470;2023-04-25T07:56:34;7;7;
47081;PMS5003;33066;49.296;14.470;2023-04-25T07:58:59;8;8;
47081;PMS5003;33066;49.296;14.470;2023-04-25T08:01:25;7;4;
47081;PMS5003;33066;49.296;14.470;2023-04-25T08:03:50;5;5;
47081;PMS5003;33066;49.296;14.470;2023-04-25T08:06:15;7;6;
47081;PMS5003;33066;49.296;14.470;2023-04-25T08:08:40;16;9;
47081;PMS5003;33066;49.296;14.470;2023-04-25T08:11:21;5;5;
47081;PMS5003;33066;49.296;14.470;2023-04-25T08:13:36;9;9;
47081;PMS5003;33066;49.296;14.470;2023-04-25T08:16:01;6;6;
47081;PMS5003;33066;49.296;14.470;2023-04-25T08:18:27;10;8;
47081;PMS5003;33066;49.296;14.470;2023-04-25T08:20:52;6;6;
47081;PMS5003;33066;49.296;14.470;2023-04-25T08:23:13;8;7;
47081;PMS5003;33066;49.296;14.470;2023-04-25T08:25:38;7;7;
47081;PMS5003;33066;49.296;14.470;2023-04-25T08:28:05;12;12;
47081;PMS5003;33066;49.296;14.470;2023-04-25T08:30:30;9;6;
47081;PMS5003;33066;49.296;14.470;2023-04-25T08:32:55;8;7;
47081;PMS5003;33066;49.296;14.470;2023-04-25T08:35:20;7;7;
47081;PMS5003;33066;49.296;14.470;2023-04-25T08:37:46;6;6;
47081;PMS5003;33066;49.296;14.470;2023-04-25T08:40:11;6;6;
47081;PMS5003;33066;49.296;14.470;2023-04-25T08:42:36;10;9;
47081;PMS5003;33066;49.296;14.470;2023-04-25T08:45:01;11;10;
47081;PMS5003;33066;49.296;14.470;2023-04-25T08:47:28;10;9;
47081;PMS5003;33066;49.296;14.470;2023-04-25T08:49:53;10;8;
47081;PMS5003;33066;49.296;14.470;2023-04-25T08:52:19;9;6;
47081;PMS5003;33066;49.296;14.470;2023-04-25T08:54:44;12;10;
47081;PMS5003;33066;49.296;14.470;2023-04-25T08:57:10;5;5;
47081;PMS5003;33066;49.296;14.470;2023-04-25T08:59:34;8;8;
47081;PMS5003;33066;49.296;14.470;2023-04-25T09:02:00;12;8;
47081;PMS5003;33066;49.296;14.470;2023-04-25T09:04:25;11;11;
47081;PMS5003;33066;49.296;14.470;2023-04-25T09:06:49;8;7;
47081;PMS5003;33066;49.296;14.470;2023-04-25T09:09:16;17;14;
47081;PMS5003;33066;49.296;14.470;2023-04-25T09:11:41;8;8;
47081;PMS5003;33066;49.296;14.470;2023-04-25T09:14:11;10;8;
47081;PMS5003;33066;49.296;14.470;2023-04-25T09:16:33;14;14;
47081;PMS5003;33066;49.296;14.470;2023-04-25T09:18:57;8;8;
47081;PMS5003;33066;49.296;14.470;2023-04-25T09:21:24;9;7;
47081;PMS5003;33066;49.296;14.470;2023-04-25T09:23:49;7;6;
47081;PMS5003;33066;49.296;14.470;2023-04-25T09:26:16;6;6;
47081;PMS5003;33066;49.296;14.470;2023-04-25T09:28:41;11;10;
47081;PMS5003;33066;49.296;14.470;2023-04-25T09:31:06;7;6;
47081;PMS5003;33066;49.296;14.470;2023-04-25T09:33:32;8;5;
47081;PMS5003;33066;49.296;14.470;2023-04-25T09:36:01;7;6;
47081;PMS5003;33066;49.296;14.470;2023-04-25T09:38:21;7;7;
47081;PMS5003;33066;49.296;14.470;2023-04-25T09:40:46;8;6;
47081;PMS5003;33066;49.296;14.470;2023-04-25T09:45:42;6;6;
47081;PMS5003;33066;49.296;14.470;2023-04-25T09:48:03;7;6;
47081;PMS5003;33066;49.296;14.470;2023-04-25T09:50:27;6;5;
47081;PMS5003;33066;49.296;14.470;2023-04-25T09:55:18;4;3;
47081;PMS5003;33066;49.296;14.470;2023-04-25T09:57:43;16;11;
47081;PMS5003;33066;49.296;14.470;2023-04-25T10:00:09;3;3;
47081;PMS5003;33066;49.296;14.470;2023-04-25T10:02:34;4;3;
47081;PMS5003;33066;49.296;14.470;2023-04-25T10:05:01;4;3;
47081;PMS5003;33066;49.296;14.470;2023-04-25T10:07:25;3;3;
47081;PMS5003;33066;49.296;14.470;2023-04-25T10:09:50;6;6;
47081;PMS5003;33066;49.296;14.470;2023-04-25T10:12:15;5;5;
47081;PMS5003;33066;49.296;14.470;2023-04-25T10:14:42;2;2;
47081;PMS5003;33066;49.296;14.470;2023-04-25T10:17:07;4;4;
47081;PMS5003;33066;49.296;14.470;2023-04-25T10:19:31;7;3;
47081;PMS5003;33066;49.296;14.470;2023-04-25T10:22:00;7;5;
47081;PMS5003;33066;49.296;14.470;2023-04-25T10:24:23;9;6;
47081;PMS5003;33066;49.296;14.470;2023-04-25T10:26:48;4;4;
47081;PMS5003;33066;49.296;14.470;2023-04-25T10:29:15;3;3;
47081;PMS5003;33066;49.296;14.470;2023-04-25T10:34:02;7;6;
47081;PMS5003;33066;49.296;14.470;2023-04-25T10:36:30;6;6;
47081;PMS5003;33066;49.296;14.470;2023-04-25T10:38:54;4;4;
47081;PMS5003;33066;49.296;14.470;2023-04-25T10:41:19;8;4;
47081;PMS5003;33066;49.296;14.470;2023-04-25T10:43:43;6;5;
47081;PMS5003;33066;49.296;14.470;2023-04-25T10:46:15;5;5;
47081;PMS5003;33066;49.296;14.470;2023-04-25T10:48:34;5;5;
47081;PMS5003;33066;49.296;14.470;2023-04-25T10:51:07;10;9;
47081;PMS5003;33066;49.296;14.470;2023-04-25T10:53:24;2;2;
47081;PMS5003;33066;49.296;14.470;2023-04-25T10:55:51;4;4;
47081;PMS5003;33066;49.296;14.470;2023-04-25T10:58:15;3;3;
47081;PMS5003;33066;49.296;14.470;2023-04-25T11:00:40;4;3;
47081;PMS5003;33066;49.296;14.470;2023-04-25T11:03:06;4;4;
47081;PMS5003;33066;49.296;14.470;2023-04-25T11:05:31;3;3;
47081;PMS5003;33066;49.296;14.470;2023-04-25T11:07:57;4;4;
47081;PMS5003;33066;49.296;14.470;2023-04-25T11:10:21;4;3;
47081;PMS5003;33066;49.296;14.470;2023-04-25T11:12:48;3;3;
47081;PMS5003;33066;49.296;14.470;2023-04-25T11:15:13;4;4;
47081;PMS5003;33066;49.296;14.470;2023-04-25T11:17:38;4;4;
47081;PMS5003;33066;49.296;14.470;2023-04-25T11:20:02;3;3;
47081;PMS5003;33066;49.296;14.470;2023-04-25T11:22:27;3;3;
47081;PMS5003;33066;49.296;14.470;2023-04-25T11:24:52;3;3;
47081;PMS5003;33066;49.296;14.470;2023-04-25T11:27:17;1;1;
47081;PMS5003;33066;49.296;14.470;2023-04-25T11:29:44;2;2;
47081;PMS5003;33066;49.296;14.470;2023-04-25T11:32:09;1;1;
47081;PMS5003;33066;49.296;14.470;2023-04-25T11:34:33;1;1;
47081;PMS5003;33066;49.296;14.470;2023-04-25T11:37:00;2;2;
47081;PMS5003;33066;49.296;14.470;2023-04-25T11:39:25;2;1;
47081;PMS5003;33066;49.296;14.470;2023-04-25T11:41:50;2;2;
47081;PMS5003;33066;49.296;14.470;2023-04-25T11:44:15;2;2;
47081;PMS5003;33066;49.296;14.470;2023-04-25T11:46:40;1;1;
47081;PMS5003;33066;49.296;14.470;2023-04-25T11:49:05;0;0;
47081;PMS5003;33066;49.296;14.470;2023-04-25T11:51:29;2;2;
47081;PMS5003;33066;49.296;14.470;2023-04-25T11:53:56;1;1;
47081;PMS5003;33066;49.296;14.470;2023-04-25T11:56:21;1;1;
47081;PMS5003;33066;49.296;14.470;2023-04-25T11:58:54;2;2;
47081;PMS5003;33066;49.296;14.470;2023-04-25T12:01:11;1;1;
47081;PMS5003;33066;49.296;14.470;2023-04-25T12:06:02;3;3;
47081;PMS5003;33066;49.296;14.470;2023-04-25T12:08:26;1;1;
47081;PMS5003;33066;49.296;14.470;2023-04-25T12:10:52;1;1;
47081;PMS5003;33066;49.296;14.470;2023-04-25T12:13:18;3;0;
47081;PMS5003;33066;49.296;14.470;2023-04-25T12:15:44;2;1;
47081;PMS5003;33066;49.296;14.470;2023-04-25T12:18:07;3;1;
47081;PMS5003;33066;49.296;14.470;2023-04-25T12:20:32;4;3;
47081;PMS5003;33066;49.296;14.470;2023-04-25T12:22:57;1;1;
47081;PMS5003;33066;49.296;14.470;2023-04-25T12:27:48;1;1;
47081;PMS5003;33066;49.296;14.470;2023-04-25T12:30:13;1;1;
47081;PMS5003;33066;49.296;14.470;2023-04-25T12:32:39;1;1;
47081;PMS5003;33066;49.296;14.470;2023-04-25T12:35:03;2;1;
47081;PMS5003;33066;49.296;14.470;2023-04-25T12:37:28;2;2;
47081;PMS5003;33066;49.296;14.470;2023-04-25T12:39:54;1;1;
47081;PMS5003;33066;49.296;14.470;2023-04-25T12:42:19;1;1;
47081;PMS5003;33066;49.296;14.470;2023-04-25T12:44:45;1;1;
47081;PMS5003;33066;49.296;14.470;2023-04-25T12:47:10;1;1;
47081;PMS5003;33066;49.296;14.470;2023-04-25T12:49:35;1;1;
47081;PMS5003;33066;49.296;14.470;2023-04-25T12:52:00;1;1;
47081;PMS5003;33066;49.296;14.470;2023-04-25T12:54:25;1;1;
47081;PMS5003;33066;49.296;14.470;2023-04-25T12:56:50;2;1;
47081;PMS5003;33066;49.296;14.470;2023-04-25T12:59:17;1;1;
47081;PMS5003;33066;49.296;14.470;2023-04-25T13:01:41;2;2;
47081;PMS5003;33066;49.296;14.470;2023-04-25T13:04:06;2;1;
47081;PMS5003;33066;49.296;14.470;2023-04-25T13:06:32;3;3;
47081;PMS5003;33066;49.296;14.470;2023-04-25T13:08:56;4;4;
47081;PMS5003;33066;49.296;14.470;2023-04-25T13:11:21;5;4;
47081;PMS5003;33066;49.296;14.470;2023-04-25T13:13:48;4;4;
47081;PMS5003;33066;49.296;14.470;2023-04-25T13:16:12;5;4;
47081;PMS5003;33066;49.296;14.470;2023-04-25T13:18:38;1;1;
47081;PMS5003;33066;49.296;14.470;2023-04-25T13:21:03;2;2;
47081;PMS5003;33066;49.296;14.470;2023-04-25T13:23:28;1;1;
47081;PMS5003;33066;49.296;14.470;2023-04-25T13:25:52;4;4;
47081;PMS5003;33066;49.296;14.470;2023-04-25T13:28:19;3;2;
47081;PMS5003;33066;49.296;14.470;2023-04-25T13:30:43;3;3;
47081;PMS5003;33066;49.296;14.470;2023-04-25T13:33:08;4;2;
47081;PMS5003;33066;49.296;14.470;2023-04-25T13:35:34;5;3;
47081;PMS5003;33066;49.296;14.470;2023-04-25T13:37:59;6;4;
47081;PMS5003;33066;49.296;14.470;2023-04-25T13:40:24;4;2;
47081;PMS5003;33066;49.296;14.470;2023-04-25T13:42:48;3;3;
47081;PMS5003;33066;49.296;14.470;2023-04-25T13:45:14;6;4;
47081;PMS5003;33066;49.296;14.470;2023-04-25T13:47:40;3;3;
47081;PMS5003;33066;49.296;14.470;2023-04-25T13:50:05;4;4;
47081;PMS5003;33066;49.296;14.470;2023-04-25T13:52:29;3;3;
47081;PMS5003;33066;49.296;14.470;2023-04-25T13:54:56;4;4;
47081;PMS5003;33066;49.296;14.470;2023-04-25T13:57:21;1;1;
47081;PMS5003;33066;49.296;14.470;2023-04-25T13:59:46;3;3;
47081;PMS5003;33066;49.296;14.470;2023-04-25T14:02:10;4;3;
47081;PMS5003;33066;49.296;14.470;2023-04-25T14:04:37;6;6;
47081;PMS5003;33066;49.296;14.470;2023-04-25T14:07:00;7;5;
47081;PMS5003;33066;49.296;14.470;2023-04-25T14:09:26;4;3;
47081;PMS5003;33066;49.296;14.470;2023-04-25T14:11:51;7;6;
47081;PMS5003;33066;49.296;14.470;2023-04-25T14:14:16;5;5;
47081;PMS5003;33066;49.296;14.470;2023-04-25T14:16:41;4;4;
47081;PMS5003;33066;49.296;14.470;2023-04-25T14:19:08;4;4;
47081;PMS5003;33066;49.296;14.470;2023-04-25T14:21:33;4;3;
47081;PMS5003;33066;49.296;14.470;2023-04-25T14:23:58;5;5;
47081;PMS5003;33066;49.296;14.470;2023-04-25T14:26:22;4;4;
47081;PMS5003;33066;49.296;14.470;2023-04-25T14:28:47;5;5;
47081;PMS5003;33066;49.296;14.470;2023-04-25T14:31:13;4;4;
47081;PMS5003;33066;49.296;14.470;2023-04-25T14:33:38;5;5;
47081;PMS5003;33066;49.296;14.470;2023-04-25T14:36:03;6;6;
47081;PMS5003;33066;49.296;14.470;2023-04-25T14:38:27;4;4;
47081;PMS5003;33066;49.296;14.470;2023-04-25T14:40:53;4;4;
47081;PMS5003;33066;49.296;14.470;2023-04-25T14:43:20;8;8;
47081;PMS5003;33066;49.296;14.470;2023-04-25T14:45:44;5;5;
47081;PMS5003;33066;49.296;14.470;2023-04-25T14:48:09;4;3;
47081;PMS5003;33066;49.296;14.470;2023-04-25T14:50:34;5;4;
47081;PMS5003;33066;49.296;14.470;2023-04-25T14:53:01;9;7;
47081;PMS5003;33066;49.296;14.470;2023-04-25T14:55:24;6;5;
47081;PMS5003;33066;49.296;14.470;2023-04-25T14:57:50;6;6;
47081;PMS5003;33066;49.296;14.470;2023-04-25T15:00:17;4;4;
47081;PMS5003;33066;49.296;14.470;2023-04-25T15:02:40;4;4;
47081;PMS5003;33066;49.296;14.470;2023-04-25T15:05:06;4;4;
47081;PMS5003;33066;49.296;14.470;2023-04-25T15:07:30;6;5;
47081;PMS5003;33066;49.296;14.470;2023-04-25T15:09:56;5;5;
47081;PMS5003;33066;49.296;14.470;2023-04-25T15:12:21;5;3;
47081;PMS5003;33066;49.296;14.470;2023-04-25T15:14:48;3;3;
47081;PMS5003;33066;49.296;14.470;2023-04-25T15:17:13;5;5;
47081;PMS5003;33066;49.296;14.470;2023-04-25T15:19:38;4;4;
47081;PMS5003;33066;49.296;14.470;2023-04-25T15:22:02;5;5;
47081;PMS5003;33066;49.296;14.470;2023-04-25T15:24:27;13;9;
47081;PMS5003;33066;49.296;14.470;2023-04-25T15:26:54;4;4;
47081;PMS5003;33066;49.296;14.470;2023-04-25T15:29:19;3;3;
47081;PMS5003;33066;49.296;14.470;2023-04-25T15:31:42;2;2;
47081;PMS5003;33066;49.296;14.470;2023-04-25T15:34:08;6;4;
47081;PMS5003;33066;49.296;14.470;2023-04-25T15:36:33;5;4;
47081;PMS5003;33066;49.296;14.470;2023-04-25T15:39:00;4;3;
47081;PMS5003;33066;49.296;14.470;2023-04-25T15:41:26;4;4;
47081;PMS5003;33066;49.296;14.470;2023-04-25T15:43:51;3;3;
47081;PMS5003;33066;49.296;14.470;2023-04-25T15:46:16;8;8;
47081;PMS5003;33066;49.296;14.470;2023-04-25T15:48:40;13;12;
47081;PMS5003;33066;49.296;14.470;2023-04-25T15:51:07;9;6;
47081;PMS5003;33066;49.296;14.470;2023-04-25T15:53:31;6;6;
47081;PMS5003;33066;49.296;14.470;2023-04-25T15:55:58;6;6;
47081;PMS5003;33066;49.296;14.470;2023-04-25T15:58:22;6;6;
47081;PMS5003;33066;49.296;14.470;2023-04-25T16:00:47;6;5;
47081;PMS5003;33066;49.296;14.470;2023-04-25T16:03:13;7;7;
47081;PMS5003;33066;49.296;14.470;2023-04-25T16:05:38;6;6;
47081;PMS5003;33066;49.296;14.470;2023-04-25T16:08:05;10;8;
47081;PMS5003;33066;49.296;14.470;2023-04-25T16:10:29;8;6;
47081;PMS5003;33066;49.296;14.470;2023-04-25T16:12:56;10;9;
47081;PMS5003;33066;49.296;14.470;2023-04-25T16:15:19;6;6;
47081;PMS5003;33066;49.296;14.470;2023-04-25T16:17:44;8;7;
47081;PMS5003;33066;49.296;14.470;2023-04-25T16:20:11;8;6;